sensor_id;sensor_type;location;lat;lon;timestamp;pressure;altitude;pressure_sealevel;temperature;humidity
21664;BME280;10993;52.510;13.456;2022-09-09T00:00:47;-26610.84;;;15.73;100.00
21664;BME280;10993;52.510;13.456;2022-09-09T00:05:56;-26608.50;;;15.65;100.00
21664;BME280;10993;52.510;13.456;2022-09-09T00:11:01;-26607.72;;;15.63;100.00
21664;BME280;10993;52.510;13.456;2022-09-09T00:16:11;-26606.00;;;15.57;100.00
21664;BME280;10993;52.510;13.456;2022-09-09T00:21:18;-26604.16;;;15.51;100.00
21664;BME280;10993;52.510;13.456;2022-09-09T00:26:22;-26606.78;;;15.60;100.00
21664;BME280;10993;52.510;13.456;2022-09-09T00:31:31;-26606.31;;;15.58;100.00
21664;BME280;10993;52.510;13.456;2022-09-09T00:36:35;-26598.38;;;15.32;100.00
21664;BME280;10993;52.510;13.456;2022-09-09T00:41:47;-26598.69;;;15.33;100.00
21664;BME280;10993;52.510;13.456;2022-09-09T00:46:59;-26598.06;;;15.31;100.00
21664;BME280;10993;52.510;13.456;2022-09-09T00:52:18;-26603.69;;;15.49;100.00
21664;BME280;10993;52.510;13.456;2022-09-09T00:57:26;-26602.91;;;15.47;100.00
21664;BME280;10993;52.510;13.456;2022-09-09T01:02:30;-26604.00;;;15.50;100.00
21664;BME280;10993;52.510;13.456;2022-09-09T01:07:33;-26601.19;;;15.41;100.00
21664;BME280;10993;52.510;13.456;2022-09-09T01:12:38;-26598.38;;;15.32;100.00
21664;BME280;10993;52.510;13.456;2022-09-09T01:17:51;-26599.31;;;15.35;100.00
21664;BME280;10993;52.510;13.456;2022-09-09T01:23:14;-26597.75;;;15.30;100.00
21664;BME280;10993;52.510;13.456;2022-09-09T01:28:26;-26589.66;;;15.03;100.00
21664;BME280;10993;52.510;13.456;2022-09-09T01:33:27;-26590.13;;;15.05;100.00
21664;BME280;10993;52.510;13.456;2022-09-09T01:38:28;-26594.34;;;15.18;100.00
21664;BME280;10993;52.510;13.456;2022-09-09T01:43:31;-26590.28;;;15.05;100.00
21664;BME280;10993;52.510;13.456;2022-09-09T01:48:32;-26592.31;;;15.12;100.00
21664;BME280;10993;52.510;13.456;2022-09-09T01:53:33;-26593.25;;;15.15;100.00
21664;BME280;10993;52.510;13.456;2022-09-09T01:58:43;-26590.13;;;15.05;100.00
21664;BME280;10993;52.510;13.456;2022-09-09T02:03:52;-26582.34;;;14.79;100.00
21664;BME280;10993;52.510;13.456;2022-09-09T02:08:56;-26586.41;;;14.92;100.00
21664;BME280;10993;52.510;13.456;2022-09-09T02:14:01;-26589.19;;;15.01;100.00
21664;BME280;10993;52.510;13.456;2022-09-09T02:19:06;-26583.44;;;14.82;100.00
21664;BME280;10993;52.510;13.456;2022-09-09T02:24:09;-26582.50;;;14.79;100.00
21664;BME280;10993;52.510;13.456;2022-09-09T02:29:15;-26580.31;;;14.72;100.00
21664;BME280;10993;52.510;13.456;2022-09-09T02:34:20;-26582.81;;;14.80;100.00
21664;BME280;10993;52.510;13.456;2022-09-09T02:39:24;-26581.41;;;14.76;100.00
21664;BME280;10993;52.510;13.456;2022-09-09T02:44:26;-26582.50;;;14.79;100.00
21664;BME280;10993;52.510;13.456;2022-09-09T02:49:30;-26573.91;;;14.51;100.00
21664;BME280;10993;52.510;13.456;2022-09-09T02:54:38;-26583.75;;;14.83;100.00
21664;BME280;10993;52.510;13.456;2022-09-09T02:59:40;-26579.84;;;14.71;100.00
21664;BME280;10993;52.510;13.456;2022-09-09T03:04:41;-26580.63;;;14.73;100.00
21664;BME280;10993;52.510;13.456;2022-09-09T03:09:45;-26582.19;;;14.78;100.00
21664;BME280;10993;52.510;13.456;2022-09-09T03:14:47;-26580.63;;;14.73;100.00
21664;BME280;10993;52.510;13.456;2022-09-09T03:19:47;-26579.53;;;14.69;100.00
21664;BME280;10993;52.510;13.456;2022-09-09T03:24:49;-26575.47;;;14.56;100.00
21664;BME280;10993;52.510;13.456;2022-09-09T03:29:52;-26570.97;;;14.41;100.00
21664;BME280;10993;52.510;13.456;2022-09-09T03:34:52;-26573.00;;;14.48;100.00
21664;BME280;10993;52.510;13.456;2022-09-09T03:39:53;-26570.03;;;14.38;100.00
21664;BME280;10993;52.510;13.456;2022-09-09T03:44:55;-26558.94;;;14.01;100.00
21664;BME280;10993;52.510;13.456;2022-09-09T03:49:57;-26565.34;;;14.23;100.00
21664;BME280;10993;52.510;13.456;2022-09-09T03:54:58;-26566.91;;;14.28;100.00
21664;BME280;10993;52.510;13.456;2022-09-09T04:00:00;-26565.66;;;14.24;100.00
21664;BME280;10993;52.510;13.456;2022-09-09T04:05:01;-26560.81;;;14.08;100.00
21664;BME280;10993;52.510;13.456;2022-09-09T04:10:01;-26561.59;;;14.10;100.00
21664;BME280;10993;52.510;13.456;2022-09-09T04:15:04;-26562.22;;;14.12;100.00
21664;BME280;10993;52.510;13.456;2022-09-09T04:20:05;-26559.41;;;14.03;100.00
21664;BME280;10993;52.510;13.456;2022-09-09T04:25:07;-26558.47;;;14.00;100.00
21664;BME280;10993;52.510;13.456;2022-09-09T04:30:10;-26557.53;;;13.97;100.00
21664;BME280;10993;52.510;13.456;2022-09-09T04:35:12;-26564.72;;;14.20;100.00
21664;BME280;10993;52.510;13.456;2022-09-09T04:40:12;-26566.91;;;14.28;100.00
21664;BME280;10993;52.510;13.456;2022-09-09T04:45:14;-26566.91;;;14.28;100.00
21664;BME280;10993;52.510;13.456;2022-09-09T04:50:15;-26567.53;;;14.30;100.00
21664;BME280;10993;52.510;13.456;2022-09-09T04:55:16;-26572.22;;;14.45;100.00
21664;BME280;10993;52.510;13.456;2022-09-09T05:00:17;-26582.66;;;14.80;100.00
21664;BME280;10993;52.510;13.456;2022-09-09T05:05:19;-26612.41;;;15.78;100.00
21664;BME280;10993;52.510;13.456;2022-09-09T05:10:19;-26633.06;;;16.47;100.00
21664;BME280;10993;52.510;13.456;2022-09-09T05:15:21;-26661.50;;;17.41;100.00
21664;BME280;10993;52.510;13.456;2022-09-09T05:20:21;-26706.75;;;18.92;100.00
21664;BME280;10993;52.510;13.456;2022-09-09T05:25:22;-26713.09;;;19.13;100.00
21664;BME280;10993;52.510;13.456;2022-09-09T05:30:26;-26729.94;;;19.69;100.00
21664;BME280;10993;52.510;13.456;2022-09-09T05:35:26;-26743.38;;;20.14;100.00
21664;BME280;10993;52.510;13.456;2022-09-09T05:40:27;-26770.06;;;21.03;98.69
21664;BME280;10993;52.510;13.456;2022-09-09T05:45:28;-26798.88;;;21.99;87.60
21664;BME280;10993;52.510;13.456;2022-09-09T05:50:29;-26859.72;;;24.04;68.61
21664;BME280;10993;52.510;13.456;2022-09-09T05:55:29;-26882.22;;;24.79;61.73
21664;BME280;10993;52.510;13.456;2022-09-09T06:00:31;-26911.59;;;25.78;57.09
21664;BME280;10993;52.510;13.456;2022-09-09T06:05:32;-26889.59;;;25.04;59.25
21664;BME280;10993;52.510;13.456;2022-09-09T06:10:34;-26894.47;;;25.21;58.82
21664;BME280;10993;52.510;13.456;2022-09-09T06:15:36;-26904.72;;;25.55;56.48
21664;BME280;10993;52.510;13.456;2022-09-09T06:20:37;-26899.22;;;25.37;56.98
21664;BME280;10993;52.510;13.456;2022-09-09T06:25:38;-26987.81;;;28.36;47.23
21664;BME280;10993;52.510;13.456;2022-09-09T06:30:42;-26962.09;;;27.49;47.09
21664;BME280;10993;52.510;13.456;2022-09-09T06:35:51;-27004.22;;;28.92;44.55
21664;BME280;10993;52.510;13.456;2022-09-09T06:40:52;-26998.16;;;28.71;45.04
21664;BME280;10993;52.510;13.456;2022-09-09T06:45:57;-26948.53;;;27.03;50.47
21664;BME280;10993;52.510;13.456;2022-09-09T06:51:03;-26903.97;;;25.53;57.57
21664;BME280;10993;52.510;13.456;2022-09-09T06:56:18;-26929.31;;;26.38;51.31
21664;BME280;10993;52.510;13.456;2022-09-09T07:01:21;-26989.94;;;28.43;45.94
21664;BME280;10993;52.510;13.456;2022-09-09T07:06:24;-27061.34;;;30.86;39.66
21664;BME280;10993;52.510;13.456;2022-09-09T07:11:27;-27073.16;;;31.26;37.85
21664;BME280;10993;52.510;13.456;2022-09-09T07:16:29;-27112.25;;;32.60;36.01
21664;BME280;10993;52.510;13.456;2022-09-09T07:21:33;-27131.97;;;33.27;34.09
21664;BME280;10993;52.510;13.456;2022-09-09T07:26:34;-27046.06;;;30.34;37.50
21664;BME280;10993;52.510;13.456;2022-09-09T07:31:37;-27042.13;;;30.21;39.56
21664;BME280;10993;52.510;13.456;2022-09-09T07:36:40;-27022.75;;;29.55;40.66
21664;BME280;10993;52.510;13.456;2022-09-09T07:41:43;-27033.50;;;29.91;39.51
21664;BME280;10993;52.510;13.456;2022-09-09T07:46:45;-27057.88;;;30.74;36.96
21664;BME280;10993;52.510;13.456;2022-09-09T07:51:46;-27079.66;;;31.48;36.13
21664;BME280;10993;52.510;13.456;2022-09-09T07:56:48;-27097.00;;;32.08;34.14
21664;BME280;10993;52.510;13.456;2022-09-09T08:01:51;-27109.53;;;32.51;35.01
21664;BME280;10993;52.510;13.456;2022-09-09T08:06:56;-27092.78;;;31.93;37.03
21664;BME280;10993;52.510;13.456;2022-09-09T08:11:58;-27126.84;;;33.10;33.94
21664;BME280;10993;52.510;13.456;2022-09-09T08:17:00;-27189.94;;;35.26;30.72
21664;BME280;10993;52.510;13.456;2022-09-09T08:22:00;-27092.47;;;31.92;34.56
21664;BME280;10993;52.510;13.456;2022-09-09T08:27:02;-26993.44;;;28.55;44.46
21664;BME280;10993;52.510;13.456;2022-09-09T08:32:03;-26971.38;;;27.80;47.66
21664;BME280;10993;52.510;13.456;2022-09-09T08:37:04;-26881.94;;;24.78;53.59
21664;BME280;10993;52.510;13.456;2022-09-09T08:42:17;-26896.47;;;25.27;56.72
21664;BME280;10993;52.510;13.456;2022-09-09T08:47:29;-26863.53;;;24.16;59.48
21664;BME280;10993;52.510;13.456;2022-09-09T08:52:38;-26840.38;;;23.39;65.38
21664;BME280;10993;52.510;13.456;2022-09-09T08:57:39;-26840.06;;;23.38;63.86
21664;BME280;10993;52.510;13.456;2022-09-09T09:02:46;-26832.84;;;23.13;67.32
21664;BME280;10993;52.510;13.456;2022-09-09T09:07:59;-26894.16;;;25.20;62.51
21664;BME280;10993;52.510;13.456;2022-09-09T09:13:01;-26947.00;;;26.98;52.55
21664;BME280;10993;52.510;13.456;2022-09-09T09:18:03;-27062.72;;;30.91;40.15
21664;BME280;10993;52.510;13.456;2022-09-09T09:23:05;-27073.91;;;31.29;37.71
21664;BME280;10993;52.510;13.456;2022-09-09T09:28:13;-27109.97;;;32.52;36.30
21664;BME280;10993;52.510;13.456;2022-09-09T09:33:22;-27076.31;;;31.37;38.36
21664;BME280;10993;52.510;13.456;2022-09-09T09:38:26;-27113.75;;;32.65;35.46
21664;BME280;10993;52.510;13.456;2022-09-09T09:43:29;-27100.63;;;32.20;35.13
21664;BME280;10993;52.510;13.456;2022-09-09T09:48:31;-27078.75;;;31.45;35.75
21664;BME280;10993;52.510;13.456;2022-09-09T09:53:34;-27108.94;;;32.49;35.34
21664;BME280;10993;52.510;13.456;2022-09-09T09:58:49;-27159.34;;;34.21;32.56
21664;BME280;10993;52.510;13.456;2022-09-09T10:03:52;-27203.41;;;35.73;29.31
21664;BME280;10993;52.510;13.456;2022-09-09T10:08:53;-27165.19;;;34.41;31.47
21664;BME280;10993;52.510;13.456;2022-09-09T10:14:03;-27052.59;;;30.56;37.24
21664;BME280;10993;52.510;13.456;2022-09-09T10:19:10;-26995.41;;;28.62;42.01
21664;BME280;10993;52.510;13.456;2022-09-09T10:24:27;-27037.75;;;30.06;41.77
21664;BME280;10993;52.510;13.456;2022-09-09T10:29:53;-27053.03;;;30.58;38.24
21664;BME280;10993;52.510;13.456;2022-09-09T10:35:08;-27076.31;;;31.37;36.14
21664;BME280;10993;52.510;13.456;2022-09-09T10:40:24;-27018.78;;;29.41;39.71
21664;BME280;10993;52.510;13.456;2022-09-09T10:45:30;-26999.97;;;28.77;42.18
21664;BME280;10993;52.510;13.456;2022-09-09T10:50:44;-26967.88;;;27.69;47.72
21664;BME280;10993;52.510;13.456;2022-09-09T10:55:52;-27011.06;;;29.15;42.53
21664;BME280;10993;52.510;13.456;2022-09-09T11:00:56;-27006.94;;;29.01;43.40
21664;BME280;10993;52.510;13.456;2022-09-09T11:06:05;-26992.38;;;28.52;42.90
21664;BME280;10993;52.510;13.456;2022-09-09T11:11:09;-27009.38;;;29.09;42.11
21664;BME280;10993;52.510;13.456;2022-09-09T11:16:20;-27030.75;;;29.82;41.05
21664;BME280;10993;52.510;13.456;2022-09-09T11:21:27;-27010.75;;;29.14;42.08
21664;BME280;10993;52.510;13.456;2022-09-09T11:26:33;-26958.28;;;27.36;45.60
21664;BME280;10993;52.510;13.456;2022-09-09T11:31:44;-26929.31;;;26.38;48.88
21664;BME280;10993;52.510;13.456;2022-09-09T11:36:56;-26916.19;;;25.94;50.22
21664;BME280;10993;52.510;13.456;2022-09-09T11:42:06;-26943.66;;;26.87;49.86
21664;BME280;10993;52.510;13.456;2022-09-09T11:47:19;-26908.25;;;25.67;51.98
21664;BME280;10993;52.510;13.456;2022-09-09T11:52:23;-26923.81;;;26.20;50.64
21664;BME280;10993;52.510;13.456;2022-09-09T11:57:32;-26906.88;;;25.62;52.92
21664;BME280;10993;52.510;13.456;2022-09-09T12:02:34;-26896.31;;;25.27;53.35
21664;BME280;10993;52.510;13.456;2022-09-09T12:07:39;-26878.41;;;24.66;57.85
21664;BME280;10993;52.510;13.456;2022-09-09T12:12:42;-26908.84;;;25.69;54.02
21664;BME280;10993;52.510;13.456;2022-09-09T12:17:44;-26891.72;;;25.11;54.56
21664;BME280;10993;52.510;13.456;2022-09-09T12:23:00;-26871.66;;;24.44;58.91
21664;BME280;10993;52.510;13.456;2022-09-09T12:28:06;-26874.56;;;24.54;57.11
21664;BME280;10993;52.510;13.456;2022-09-09T12:33:11;-26878.25;;;24.66;55.62
21664;BME280;10993;52.510;13.456;2022-09-09T12:38:17;-26880.69;;;24.74;54.96
21664;BME280;10993;52.510;13.456;2022-09-09T12:43:22;-26895.09;;;25.23;53.04
21664;BME280;10993;52.510;13.456;2022-09-09T12:48:27;-26890.94;;;25.09;53.27
21664;BME280;10993;52.510;13.456;2022-09-09T12:53:32;-26893.25;;;25.16;52.79
21664;BME280;10993;52.510;13.456;2022-09-09T12:58:36;-26895.25;;;25.23;53.22
21664;BME280;10993;52.510;13.456;2022-09-09T13:03:42;-26890.94;;;25.09;54.30
21664;BME280;10993;52.510;13.456;2022-09-09T13:08:44;-26892.94;;;25.15;50.24
21664;BME280;10993;52.510;13.456;2022-09-09T13:13:51;-26886.53;;;24.94;50.61
21664;BME280;10993;52.510;13.456;2022-09-09T13:18:52;-26888.97;;;25.02;52.61
21664;BME280;10993;52.510;13.456;2022-09-09T13:23:54;-26888.66;;;25.01;50.47
21664;BME280;10993;52.510;13.456;2022-09-09T13:28:55;-26885.16;;;24.89;51.26
21664;BME280;10993;52.510;13.456;2022-09-09T13:34:11;-26913.59;;;25.85;49.88
21664;BME280;10993;52.510;13.456;2022-09-09T13:39:16;-26916.78;;;25.96;48.75
21664;BME280;10993;52.510;13.456;2022-09-09T13:44:20;-26913.44;;;25.84;48.28
21664;BME280;10993;52.510;13.456;2022-09-09T13:49:23;-26907.00;;;25.63;48.19
21664;BME280;10993;52.510;13.456;2022-09-09T13:54:25;-26899.06;;;25.36;47.93
21664;BME280;10993;52.510;13.456;2022-09-09T13:59:25;-26901.81;;;25.45;50.16
21664;BME280;10993;52.510;13.456;2022-09-09T14:04:26;-26918.16;;;26.00;47.06
21664;BME280;10993;52.510;13.456;2022-09-09T14:09:27;-26909.00;;;25.70;48.82
21664;BME280;10993;52.510;13.456;2022-09-09T14:14:28;-26878.25;;;24.66;51.54
21664;BME280;10993;52.510;13.456;2022-09-09T14:19:28;-26877.94;;;24.65;53.04
21664;BME280;10993;52.510;13.456;2022-09-09T14:24:30;-26898.44;;;25.34;53.43
21664;BME280;10993;52.510;13.456;2022-09-09T14:29:31;-26887.91;;;24.98;53.24
21664;BME280;10993;52.510;13.456;2022-09-09T14:34:31;-26885.91;;;24.92;57.24
21664;BME280;10993;52.510;13.456;2022-09-09T14:39:36;-26891.41;;;25.10;54.15
21664;BME280;10993;52.510;13.456;2022-09-09T14:44:37;-26892.47;;;25.14;53.11
21664;BME280;10993;52.510;13.456;2022-09-09T14:49:38;-26877.66;;;24.64;55.42
21664;BME280;10993;52.510;13.456;2022-09-09T14:54:40;-26885.75;;;24.91;55.69
21664;BME280;10993;52.510;13.456;2022-09-09T14:59:40;-26886.97;;;24.95;56.14
21664;BME280;10993;52.510;13.456;2022-09-09T15:04:40;-26892.03;;;25.12;54.46
21664;BME280;10993;52.510;13.456;2022-09-09T15:09:42;-26896.00;;;25.26;54.40
21664;BME280;10993;52.510;13.456;2022-09-09T15:14:42;-26881.16;;;24.76;53.65
21664;BME280;10993;52.510;13.456;2022-09-09T15:19:43;-26872.44;;;24.46;52.07
21664;BME280;10993;52.510;13.456;2022-09-09T15:24:45;-26874.13;;;24.52;50.21
21664;BME280;10993;52.510;13.456;2022-09-09T15:29:45;-26869.97;;;24.38;49.64
21664;BME280;10993;52.510;13.456;2022-09-09T15:34:46;-26874.72;;;24.54;46.94
21664;BME280;10993;52.510;13.456;2022-09-09T15:39:49;-26883.75;;;24.84;45.52
21664;BME280;10993;52.510;13.456;2022-09-09T15:44:49;-26881.63;;;24.77;46.38
21664;BME280;10993;52.510;13.456;2022-09-09T15:49:49;-26865.22;;;24.22;51.41
21664;BME280;10993;52.510;13.456;2022-09-09T15:54:51;-26850.34;;;23.72;53.67
21664;BME280;10993;52.510;13.456;2022-09-09T15:59:52;-26849.91;;;23.71;51.25
21664;BME280;10993;52.510;13.456;2022-09-09T16:04:52;-26852.50;;;23.79;50.77
21664;BME280;10993;52.510;13.456;2022-09-09T16:09:54;-26853.13;;;23.81;51.57
21664;BME280;10993;52.510;13.456;2022-09-09T16:14:54;-26854.66;;;23.87;49.94
21664;BME280;10993;52.510;13.456;2022-09-09T16:19:55;-26851.44;;;23.76;50.72
21664;BME280;10993;52.510;13.456;2022-09-09T16:24:56;-26855.09;;;23.88;50.26
21664;BME280;10993;52.510;13.456;2022-09-09T16:29:57;-26849.44;;;23.69;50.97
21664;BME280;10993;52.510;13.456;2022-09-09T16:34:57;-26841.47;;;23.42;51.71
21664;BME280;10993;52.510;13.456;2022-09-09T16:39:58;-26840.22;;;23.38;52.91
21664;BME280;10993;52.510;13.456;2022-09-09T16:44:59;-26833.78;;;23.16;54.23
21664;BME280;10993;52.510;13.456;2022-09-09T16:49:59;-26827.94;;;22.97;55.97
21664;BME280;10993;52.510;13.456;2022-09-09T16:55:01;-26820.88;;;22.73;62.47
21664;BME280;10993;52.510;13.456;2022-09-09T17:00:03;-26811.34;;;22.41;66.20
21664;BME280;10993;52.510;13.456;2022-09-09T17:05:06;-26804.25;;;22.17;68.26
21664;BME280;10993;52.510;13.456;2022-09-09T17:10:08;-26804.25;;;22.17;71.30
21664;BME280;10993;52.510;13.456;2022-09-09T17:15:09;-26791.81;;;21.76;78.16
21664;BME280;10993;52.510;13.456;2022-09-09T17:20:10;-26784.88;;;21.52;81.00
21664;BME280;10993;52.510;13.456;2022-09-09T17:25:12;-26774.25;;;21.17;80.44
21664;BME280;10993;52.510;13.456;2022-09-09T17:30:12;-26767.91;;;20.96;76.81
21664;BME280;10993;52.510;13.456;2022-09-09T17:35:13;-26762.06;;;20.76;75.41
21664;BME280;10993;52.510;13.456;2022-09-09T17:40:15;-26753.88;;;20.49;73.32
21664;BME280;10993;52.510;13.456;2022-09-09T17:45:16;-26752.81;;;20.45;75.42
21664;BME280;10993;52.510;13.456;2022-09-09T17:50:16;-26746.00;;;20.23;71.50
21664;BME280;10993;52.510;13.456;2022-09-09T17:55:19;-26740.44;;;20.04;72.50
21664;BME280;10993;52.510;13.456;2022-09-09T18:00:21;-26732.09;;;19.76;73.66
21664;BME280;10993;52.510;13.456;2022-09-09T18:05:21;-26722.53;;;19.44;76.20
21664;BME280;10993;52.510;13.456;2022-09-09T18:10:23;-26718.19;;;19.30;77.23
21664;BME280;10993;52.510;13.456;2022-09-09T18:15:23;-26716.03;;;19.23;78.74
21664;BME280;10993;52.510;13.456;2022-09-09T18:20:24;-26708.91;;;18.99;81.51
21664;BME280;10993;52.510;13.456;2022-09-09T18:25:26;-26705.97;;;18.89;84.27
21664;BME280;10993;52.510;13.456;2022-09-09T18:30:26;-26704.44;;;18.84;86.32
21664;BME280;10993;52.510;13.456;2022-09-09T18:35:27;-26701.78;;;18.75;88.36
21664;BME280;10993;52.510;13.456;2022-09-09T18:40:30;-26691.56;;;18.41;92.13
21664;BME280;10993;52.510;13.456;2022-09-09T18:45:34;-26695.59;;;18.55;94.00
21664;BME280;10993;52.510;13.456;2022-09-09T18:50:34;-26688.63;;;18.31;97.33
21664;BME280;10993;52.510;13.456;2022-09-09T18:55:36;-26687.22;;;18.27;99.66
21664;BME280;10993;52.510;13.456;2022-09-09T19:00:36;-26683.97;;;18.16;100.00
21664;BME280;10993;52.510;13.456;2022-09-09T19:05:37;-26681.50;;;18.08;100.00
21664;BME280;10993;52.510;13.456;2022-09-09T19:10:39;-26681.81;;;18.09;100.00
21664;BME280;10993;52.510;13.456;2022-09-09T19:15:39;-26672.81;;;17.79;99.91
21664;BME280;10993;52.510;13.456;2022-09-09T19:20:40;-26676.06;;;17.90;99.78
21664;BME280;10993;52.510;13.456;2022-09-09T19:25:41;-26670.66;;;17.72;100.00
21664;BME280;10993;52.510;13.456;2022-09-09T19:30:42;-26678.09;;;17.96;99.27
21664;BME280;10993;52.510;13.456;2022-09-09T19:35:56;-26676.38;;;17.91;99.66
21664;BME280;10993;52.510;13.456;2022-09-09T19:41:03;-26670.81;;;17.72;99.14
21664;BME280;10993;52.510;13.456;2022-09-09T19:46:06;-26668.63;;;17.65;98.83
21664;BME280;10993;52.510;13.456;2022-09-09T19:51:09;-26668.00;;;17.63;99.36
21664;BME280;10993;52.510;13.456;2022-09-09T19:56:12;-26667.38;;;17.61;98.48
21664;BME280;10993;52.510;13.456;2022-09-09T20:01:14;-26663.97;;;17.49;98.04
21664;BME280;10993;52.510;13.456;2022-09-09T20:06:16;-26663.50;;;17.48;97.74
21664;BME280;10993;52.510;13.456;2022-09-09T20:11:18;-26664.75;;;17.52;98.19
21664;BME280;10993;52.510;13.456;2022-09-09T20:16:20;-26660.56;;;17.38;98.69
21664;BME280;10993;52.510;13.456;2022-09-09T20:21:23;-26653.75;;;17.15;99.31
21664;BME280;10993;52.510;13.456;2022-09-09T20:26:26;-26655.28;;;17.21;98.66
21664;BME280;10993;52.510;13.456;2022-09-09T20:31:31;-26651.72;;;17.09;98.52
21664;BME280;10993;52.510;13.456;2022-09-09T20:36:33;-26654.19;;;17.17;98.80
21664;BME280;10993;52.510;13.456;2022-09-09T20:41:37;-26653.75;;;17.15;99.69
21664;BME280;10993;52.510;13.456;2022-09-09T20:46:39;-26652.66;;;17.12;99.94
21664;BME280;10993;52.510;13.456;2022-09-09T20:51:40;-26652.03;;;17.10;100.00
21664;BME280;10993;52.510;13.456;2022-09-09T20:56:44;-26647.84;;;16.96;100.00
21664;BME280;10993;52.510;13.456;2022-09-09T21:01:44;-26645.19;;;16.87;100.00
21664;BME280;10993;52.510;13.456;2022-09-09T21:06:47;-26645.19;;;16.87;100.00
21664;BME280;10993;52.510;13.456;2022-09-09T21:11:50;-26643.16;;;16.80;100.00
21664;BME280;10993;52.510;13.456;2022-09-09T21:16:53;-26646.13;;;16.90;100.00
21664;BME280;10993;52.510;13.456;2022-09-09T21:21:53;-26644.88;;;16.86;100.00
21664;BME280;10993;52.510;13.456;2022-09-09T21:26:55;-26636.03;;;16.57;100.00
21664;BME280;10993;52.510;13.456;2022-09-09T21:31:55;-26641.31;;;16.74;100.00
21664;BME280;10993;52.510;13.456;2022-09-09T21:36:56;-26640.84;;;16.73;100.00
21664;BME280;10993;52.510;13.456;2022-09-09T21:41:58;-26638.50;;;16.65;100.00
21664;BME280;10993;52.510;13.456;2022-09-09T21:46:59;-26632.63;;;16.45;100.00
21664;BME280;10993;52.510;13.456;2022-09-09T21:52:00;-26634.78;;;16.52;100.00
21664;BME280;10993;52.510;13.456;2022-09-09T21:57:03;-26631.84;;;16.43;100.00
21664;BME280;10993;52.510;13.456;2022-09-09T22:02:03;-26630.59;;;16.39;100.00
21664;BME280;10993;52.510;13.456;2022-09-09T22:07:04;-26628.25;;;16.31;100.00
21664;BME280;10993;52.510;13.456;2022-09-09T22:12:07;-26628.41;;;16.31;100.00
21664;BME280;10993;52.510;13.456;2022-09-09T22:17:07;-26616.91;;;15.93;100.00
21664;BME280;10993;52.510;13.456;2022-09-09T22:22:08;-26624.69;;;16.19;100.00
21664;BME280;10993;52.510;13.456;2022-09-09T22:27:09;-26622.97;;;16.13;100.00
21664;BME280;10993;52.510;13.456;2022-09-09T22:32:11;-26618.16;;;15.97;100.00
21664;BME280;10993;52.510;13.456;2022-09-09T22:37:11;-26620.63;;;16.06;100.00
21664;BME280;10993;52.510;13.456;2022-09-09T22:42:13;-26621.88;;;16.10;100.00
21664;BME280;10993;52.510;13.456;2022-09-09T22:47:14;-26618.47;;;15.98;100.00
21664;BME280;10993;52.510;13.456;2022-09-09T22:52:14;-26615.81;;;15.90;100.00
21664;BME280;10993;52.510;13.456;2022-09-09T22:57:16;-26619.56;;;16.02;100.00
21664;BME280;10993;52.510;13.456;2022-09-09T23:02:17;-26616.13;;;15.91;100.00
21664;BME280;10993;52.510;13.456;2022-09-09T23:07:19;-26614.56;;;15.85;100.00
21664;BME280;10993;52.510;13.456;2022-09-09T23:12:23;-26612.41;;;15.78;100.00
21664;BME280;10993;52.510;13.456;2022-09-09T23:17:24;-26618.78;;;15.99;100.00
21664;BME280;10993;52.510;13.456;2022-09-09T23:22:25;-26614.56;;;15.85;100.00
21664;BME280;10993;52.510;13.456;2022-09-09T23:27:27;-26612.41;;;15.78;100.00
21664;BME280;10993;52.510;13.456;2022-09-09T23:32:29;-26614.56;;;15.85;100.00
21664;BME280;10993;52.510;13.456;2022-09-09T23:37:30;-26613.97;;;15.83;100.00
21664;BME280;10993;52.510;13.456;2022-09-09T23:42:32;-26613.66;;;15.82;100.00
21664;BME280;10993;52.510;13.456;2022-09-09T23:47:33;-26615.34;;;15.88;100.00
21664;BME280;10993;52.510;13.456;2022-09-09T23:52:33;-26614.88;;;15.86;100.00
21664;BME280;10993;52.510;13.456;2022-09-09T23:57:35;-26614.25;;;15.84;100.00
